createdAt,value
2019-05-06T00:00:08.066Z,2.70
2019-05-06T00:01:45.457Z,2.90
2019-05-06T00:03:21.891Z,2.55
2019-05-06T00:04:58.485Z,2.50
2019-05-06T00:06:34.789Z,2.33
2019-05-06T00:08:10.362Z,2.67
2019-05-06T00:09:46.120Z,2.70
2019-05-06T00:11:23.847Z,2.90
2019-05-06T00:12:59.678Z,2.30
2019-05-06T00:14:35.202Z,2.70
2019-05-06T00:16:10.788Z,2.63
2019-05-06T00:17:46.299Z,2.80
2019-05-06T00:19:24.497Z,2.40
2019-05-06T00:20:59.484Z,2.30
2019-05-06T00:22:34.987Z,2.60
2019-05-06T00:24:10.569Z,2.47
2019-05-06T00:26:04.131Z,2.83
2019-05-06T00:27:57.585Z,2.70
2019-05-06T00:29:34.935Z,2.92
2019-05-06T00:31:15.931Z,2.30
2019-05-06T00:32:49.227Z,2.63
2019-05-06T00:34:24.720Z,2.83
2019-05-06T00:36:00.645Z,2.67
2019-05-06T00:37:36.426Z,2.50
2019-05-06T00:39:14.920Z,2.40
2019-05-06T00:41:04.420Z,2.40
2019-05-06T00:42:41.575Z,2.65
2019-05-06T00:44:17.145Z,2.50
2019-05-06T00:45:53.662Z,2.50
2019-05-06T00:47:29.423Z,2.60
2019-05-06T00:49:04.908Z,2.52
2019-05-06T00:50:40.429Z,2.83
2019-05-06T00:52:15.944Z,2.90
2019-05-06T00:53:55.891Z,2.90
2019-05-06T00:55:33.634Z,2.73
2019-05-06T00:57:08.609Z,2.30
2019-05-06T00:58:44.110Z,2.70
2019-05-06T01:00:24.417Z,2.77
2019-05-06T01:02:00.064Z,2.43
2019-05-06T01:03:35.589Z,2.93
2019-05-06T01:05:13.407Z,2.67
2019-05-06T01:06:51.523Z,2.47
2019-05-06T01:08:27.952Z,2.90
2019-05-06T01:10:04.136Z,2.70
2019-05-06T01:11:40.797Z,2.90
2019-05-06T01:13:28.086Z,2.80
2019-05-06T01:15:06.809Z,2.80
2019-05-06T01:16:43.967Z,2.83
2019-05-06T01:18:21.223Z,3.00
2019-05-06T01:19:56.752Z,2.63
2019-05-06T01:21:34.133Z,2.60
2019-05-06T01:23:09.485Z,2.80
2019-05-06T01:24:45.056Z,3.00
2019-05-06T01:26:20.580Z,2.77
2019-05-06T01:27:56.092Z,2.70
2019-05-06T01:29:31.613Z,2.50
2019-05-06T01:31:08.959Z,2.90
2019-05-06T01:32:44.468Z,2.77
2019-05-06T01:34:19.978Z,2.80
2019-05-06T01:35:55.503Z,2.83
2019-05-06T01:37:31.486Z,2.87
2019-05-06T01:39:19.286Z,3.15
2019-05-06T01:40:56.503Z,2.70
2019-05-06T01:42:49.441Z,2.85
2019-05-06T01:44:24.966Z,3.02
2019-05-06T01:46:01.448Z,2.63
2019-05-06T01:47:36.966Z,2.77
2019-05-06T01:49:13.780Z,2.80
2019-05-06T01:50:49.637Z,3.10
2019-05-06T01:52:25.156Z,2.90
2019-05-06T01:54:00.684Z,3.10
2019-05-06T01:55:36.183Z,3.20
2019-05-06T01:57:13.590Z,3.10
2019-05-06T01:58:53.454Z,3.10
2019-05-06T02:00:28.529Z,3.05
2019-05-06T02:02:04.662Z,3.25
2019-05-06T02:03:40.263Z,2.92
2019-05-06T02:05:15.757Z,3.50
2019-05-06T02:06:51.507Z,3.17
2019-05-06T02:08:27.080Z,3.27
2019-05-06T02:10:03.947Z,3.30
2019-05-06T02:11:39.637Z,2.90
2019-05-06T02:13:15.181Z,3.30
2019-05-06T02:14:51.022Z,3.20
2019-05-06T02:16:27.398Z,3.50
2019-05-06T02:18:10.542Z,3.10
2019-05-06T02:19:44.694Z,3.30
2019-05-06T02:21:26.501Z,2.93
2019-05-06T02:23:04.162Z,3.40
2019-05-06T02:24:43.987Z,2.97
2019-05-06T02:26:19.626Z,3.20
2019-05-06T02:27:55.157Z,3.13
2019-05-06T02:29:36.947Z,3.30
2019-05-06T02:31:30.193Z,3.80
2019-05-06T02:33:10.046Z,3.60
2019-05-06T02:34:54.685Z,3.60
2019-05-06T02:36:37.854Z,3.70
2019-05-06T02:38:39.249Z,3.40
2019-05-06T02:40:25.056Z,3.55
2019-05-06T02:41:59.893Z,3.67
2019-05-06T02:43:35.396Z,3.60
2019-05-06T02:45:12.713Z,3.50
2019-05-06T02:46:53.157Z,3.70
2019-05-06T02:48:43.281Z,3.50
2019-05-06T02:50:23.930Z,3.40
2019-05-06T02:52:02.795Z,3.47
2019-05-06T02:53:36.934Z,3.40
2019-05-06T02:55:13.043Z,3.43
2019-05-06T02:56:48.601Z,3.20
2019-05-06T02:58:27.608Z,3.53
2019-05-06T03:00:05.024Z,3.43
2019-05-06T03:01:43.208Z,3.73
2019-05-06T03:03:23.263Z,3.27
2019-05-06T03:04:58.636Z,3.70
2019-05-06T03:06:34.137Z,3.43
2019-05-06T03:08:13.182Z,3.50
2019-05-06T03:09:46.853Z,3.83
2019-05-06T03:11:24.026Z,3.63
2019-05-06T03:12:59.740Z,3.50
2019-05-06T03:14:35.250Z,3.70
2019-05-06T03:16:13.913Z,4.03
2019-05-06T03:17:48.038Z,3.60
2019-05-06T03:19:24.959Z,3.80
2019-05-06T03:21:03.879Z,3.83
2019-05-06T03:22:43.619Z,3.70
2019-05-06T03:24:17.960Z,3.98
2019-05-06T03:25:54.099Z,4.10
2019-05-06T03:27:32.663Z,3.90
2019-05-06T03:29:06.837Z,3.50
2019-05-06T03:30:45.985Z,3.93
2019-05-06T03:32:24.694Z,3.93
2019-05-06T03:34:22.247Z,3.60
2019-05-06T03:35:49.962Z,3.77
2019-05-06T03:37:16.216Z,3.70
2019-05-06T03:38:48.438Z,3.47
2019-05-06T03:40:23.948Z,3.87
2019-05-06T03:41:59.446Z,3.37
2019-05-06T03:43:34.974Z,3.87
2019-05-06T03:45:13.179Z,3.80
2019-05-06T03:47:08.865Z,3.72
2019-05-06T03:48:48.920Z,3.50
2019-05-06T03:50:24.688Z,3.80
2019-05-06T03:52:02.547Z,3.70
2019-05-06T03:53:37.456Z,3.98
2019-05-06T03:55:13.800Z,3.60
2019-05-06T03:56:53.772Z,3.65
2019-05-06T03:58:34.599Z,3.70
2019-05-06T04:00:15.915Z,3.90
2019-05-06T04:01:53.298Z,3.93
2019-05-06T04:03:42.451Z,3.93
2019-05-06T04:05:06.098Z,3.87
2019-05-06T04:06:43.627Z,4.00
2019-05-06T04:08:20.455Z,4.23
2019-05-06T04:09:57.248Z,4.40
2019-05-06T04:11:35.969Z,4.13
2019-05-06T04:13:13.437Z,4.17
2019-05-06T04:14:49.577Z,3.80
2019-05-06T04:16:30.430Z,4.07
2019-05-06T04:18:12.399Z,3.77
2019-05-06T04:19:53.527Z,4.43
2019-05-06T04:21:45.678Z,4.27
2019-05-06T04:23:38.192Z,4.43
2019-05-06T04:25:18.994Z,4.00
2019-05-06T04:27:16.557Z,4.00
2019-05-06T04:28:53.460Z,3.80
2019-05-06T04:30:29.208Z,4.03
2019-05-06T04:32:06.073Z,4.10
2019-05-06T04:33:46.112Z,3.90
2019-05-06T04:35:19.143Z,4.37
2019-05-06T04:36:54.950Z,4.10
2019-05-06T04:38:33.507Z,4.27
2019-05-06T04:40:09.009Z,4.55
2019-05-06T04:41:44.794Z,3.90
2019-05-06T04:43:26.242Z,4.20
2019-05-06T04:44:57.806Z,3.80
2019-05-06T04:46:34.886Z,3.50
2019-05-06T04:48:14.447Z,3.83
2019-05-06T04:49:48.709Z,4.47
2019-05-06T04:51:24.968Z,5.07
2019-05-06T04:53:05.136Z,4.80
2019-05-06T04:54:43.926Z,4.33
2019-05-06T04:56:18.467Z,5.13
2019-05-06T04:57:55.165Z,4.67
2019-05-06T04:59:32.592Z,4.33
2019-05-06T05:01:11.903Z,4.75
2019-05-06T05:02:46.414Z,4.85
2019-05-06T05:04:31.054Z,4.77
2019-05-06T05:06:01.978Z,4.70
2019-05-06T05:07:37.241Z,4.63
2019-05-06T05:09:17.165Z,4.58
2019-05-06T05:10:53.359Z,4.87
2019-05-06T05:12:33.799Z,4.80
2019-05-06T05:14:13.882Z,4.80
2019-05-06T05:15:57.215Z,4.90
2019-05-06T05:17:37.302Z,5.37
2019-05-06T05:19:15.197Z,4.93
2019-05-06T05:20:52.735Z,4.90
2019-05-06T05:22:28.899Z,4.60
2019-05-06T05:24:04.482Z,4.87
2019-05-06T05:25:40.004Z,5.20
2019-05-06T05:27:15.575Z,5.10
2019-05-06T05:28:53.187Z,4.87
2019-05-06T05:30:28.598Z,5.05
2019-05-06T05:32:04.275Z,4.87
2019-05-06T05:33:42.158Z,4.97
2019-05-06T05:35:19.297Z,4.13
2019-05-06T05:36:54.651Z,4.37
2019-05-06T05:38:32.072Z,4.13
2019-05-06T05:40:07.628Z,4.60
2019-05-06T05:41:43.193Z,4.37
2019-05-06T05:43:24.288Z,4.77
2019-05-06T05:45:02.507Z,5.00
2019-05-06T05:46:39.412Z,4.78
2019-05-06T05:48:23.550Z,4.50
2019-05-06T05:50:09.499Z,4.78
2019-05-06T05:51:45.020Z,4.57
2019-05-06T05:53:22.437Z,5.10
2019-05-06T05:54:58.062Z,4.53
2019-05-06T05:56:33.624Z,4.70
2019-05-06T05:58:09.428Z,4.90
2019-05-06T05:59:45.269Z,4.97
2019-05-06T06:01:23.203Z,4.80
2019-05-06T06:02:58.422Z,4.85
2019-05-06T06:04:33.981Z,4.73
2019-05-06T06:06:09.505Z,4.80
2019-05-06T06:07:45.023Z,5.23
2019-05-06T06:09:22.354Z,5.00
2019-05-06T06:11:16.047Z,5.40
2019-05-06T06:12:54.691Z,4.84
2019-05-06T06:14:43.771Z,5.17
2019-05-06T06:16:20.837Z,5.20
2019-05-06T06:18:14.190Z,5.40
2019-05-06T06:19:53.327Z,5.17
2019-05-06T06:21:33.541Z,5.75
2019-05-06T06:23:10.775Z,5.30
2019-05-06T06:24:46.287Z,5.50
2019-05-06T06:26:23.097Z,5.00
2019-05-06T06:27:58.603Z,4.70
2019-05-06T06:29:34.135Z,4.90
2019-05-06T06:31:17.209Z,4.78
2019-05-06T06:32:53.201Z,4.93
2019-05-06T06:34:46.304Z,5.53
2019-05-06T06:36:29.487Z,4.77
2019-05-06T06:38:09.621Z,4.50
2019-05-06T06:39:46.857Z,4.90
2019-05-06T06:41:22.895Z,4.50
2019-05-06T06:43:02.026Z,4.20
2019-05-06T06:44:37.384Z,4.10
2019-05-06T06:46:12.916Z,4.83
2019-05-06T06:47:49.198Z,4.13
2019-05-06T06:49:24.712Z,4.30
2019-05-06T06:51:00.271Z,4.35
2019-05-06T06:52:35.764Z,4.30
2019-05-06T06:54:12.301Z,4.15
2019-05-06T06:55:48.048Z,4.00
2019-05-06T06:57:25.936Z,4.20
2019-05-06T06:59:19.573Z,3.85
2019-05-06T07:01:16.397Z,4.00
2019-05-06T07:02:53.674Z,4.30
2019-05-06T07:04:36.629Z,4.17
2019-05-06T07:06:14.969Z,3.85
2019-05-06T07:07:52.937Z,3.63
2019-05-06T07:09:29.733Z,4.03
2019-05-06T07:11:05.405Z,3.50
2019-05-06T07:12:42.703Z,3.75
2019-05-06T07:14:18.578Z,3.87
2019-05-06T07:15:54.428Z,4.33
2019-05-06T07:17:32.654Z,3.80
2019-05-06T07:19:07.833Z,3.92
2019-05-06T07:20:52.560Z,3.50
2019-05-06T07:22:29.539Z,3.70
2019-05-06T07:24:05.193Z,3.33
2019-05-06T07:25:42.909Z,3.22
2019-05-06T07:27:19.603Z,3.12
2019-05-06T07:28:55.344Z,3.83
2019-05-06T07:30:34.222Z,3.10
2019-05-06T07:32:09.757Z,3.37
2019-05-06T07:33:45.828Z,3.45
2019-05-06T07:35:22.557Z,3.12
2019-05-06T07:36:58.684Z,2.80
2019-05-06T07:38:34.790Z,2.70
2019-05-06T07:40:12.418Z,3.00
2019-05-06T07:41:53.508Z,3.33
2019-05-06T07:43:42.842Z,2.92
2019-05-06T07:45:29.070Z,2.98
2019-05-06T07:47:06.333Z,3.08
2019-05-06T07:48:42.867Z,2.77
2019-05-06T07:50:18.486Z,3.10
2019-05-06T07:51:55.035Z,3.37
2019-05-06T07:53:32.114Z,3.05
2019-05-06T07:55:07.862Z,2.87
2019-05-06T07:56:43.387Z,2.87
2019-05-06T07:58:18.916Z,2.92
2019-05-06T07:59:55.682Z,3.27
2019-05-06T08:01:33.263Z,2.67
2019-05-06T08:03:08.718Z,2.65
2019-05-06T08:04:44.256Z,2.60
2019-05-06T08:06:19.749Z,2.83
2019-05-06T08:07:55.560Z,2.87
2019-05-06T08:09:32.614Z,2.98
2019-05-06T08:11:08.215Z,2.47
2019-05-06T08:12:43.727Z,2.60
2019-05-06T08:14:19.262Z,2.45
2019-05-06T08:15:54.903Z,2.52
2019-05-06T08:17:33.125Z,2.47
2019-05-06T08:19:08.894Z,2.62
2019-05-06T08:20:44.665Z,2.30
2019-05-06T08:22:37.636Z,3.15
2019-05-06T08:24:13.146Z,2.70
2019-05-06T08:25:57.647Z,2.58
2019-05-06T08:27:29.906Z,2.40
2019-05-06T08:29:05.444Z,2.60
2019-05-06T08:30:43.035Z,2.40
2019-05-06T08:32:18.432Z,2.40
2019-05-06T08:33:54.257Z,2.70
2019-05-06T08:35:29.846Z,2.60
2019-05-06T08:37:09.406Z,2.20
2019-05-06T08:38:58.413Z,2.10
2019-05-06T08:40:33.916Z,2.23
2019-05-06T08:42:09.493Z,2.30
2019-05-06T08:43:45.063Z,2.17
2019-05-06T08:45:22.028Z,2.30
2019-05-06T08:46:58.177Z,2.30
2019-05-06T08:48:33.958Z,2.10
2019-05-06T08:50:12.817Z,2.72
2019-05-06T08:51:52.926Z,2.20
2019-05-06T08:53:30.465Z,2.57
2019-05-06T08:55:07.559Z,2.50
2019-05-06T08:56:43.149Z,2.52
2019-05-06T08:58:18.687Z,2.60
2019-05-06T08:59:54.214Z,2.50
2019-05-06T09:01:37.370Z,2.40
2019-05-06T09:03:14.304Z,2.53
2019-05-06T09:04:51.824Z,2.43
2019-05-06T09:06:31.503Z,2.23
2019-05-06T09:08:05.488Z,2.00
2019-05-06T09:09:42.119Z,2.25
2019-05-06T09:11:19.426Z,2.33
2019-05-06T09:12:54.950Z,2.70
2019-05-06T09:14:32.727Z,2.50
2019-05-06T09:16:07.729Z,2.40
2019-05-06T09:17:43.251Z,2.37
2019-05-06T09:19:18.799Z,2.30
2019-05-06T09:20:54.317Z,2.70
2019-05-06T09:22:32.432Z,2.60
2019-05-06T09:24:07.122Z,2.60
2019-05-06T09:25:42.632Z,2.43
2019-05-06T09:27:22.612Z,2.30
2019-05-06T09:29:03.340Z,2.70
2019-05-06T09:30:43.237Z,2.52
2019-05-06T09:32:23.321Z,2.70
2019-05-06T09:34:02.728Z,2.50
2019-05-06T09:35:37.693Z,2.90
2019-05-06T09:37:14.475Z,3.00
2019-05-06T09:38:52.511Z,2.60
2019-05-06T09:40:27.557Z,2.77
2019-05-06T09:42:03.083Z,2.73
2019-05-06T09:43:38.604Z,2.63
2019-05-06T09:45:14.267Z,3.10
2019-05-06T09:46:49.806Z,2.90
2019-05-06T09:48:43.026Z,2.60
2019-05-06T09:50:32.451Z,3.07
2019-05-06T09:52:07.973Z,2.50
2019-05-06T09:54:03.957Z,2.30
2019-05-06T09:55:56.057Z,2.47
2019-05-06T09:57:49.249Z,2.30
2019-05-06T09:59:24.844Z,2.47
2019-05-06T10:01:02.633Z,2.37
2019-05-06T10:02:39.354Z,2.20
2019-05-06T10:04:14.925Z,2.15
2019-05-06T10:05:50.112Z,2.22
2019-05-06T10:07:25.551Z,2.30
2019-05-06T10:09:04.843Z,2.20
2019-05-06T10:10:53.706Z,2.23
2019-05-06T10:12:17.470Z,2.27
2019-05-06T10:13:53.015Z,2.08
2019-05-06T10:15:29.510Z,2.10
2019-05-06T10:17:05.084Z,2.40
2019-05-06T10:18:40.849Z,2.30
2019-05-06T10:20:16.509Z,2.25
2019-05-06T10:21:53.063Z,2.13
2019-05-06T10:23:29.761Z,2.40
2019-05-06T10:25:06.226Z,2.20
2019-05-06T10:26:45.819Z,1.72
2019-05-06T10:28:39.287Z,1.82
2019-05-06T10:30:16.515Z,2.25
2019-05-06T10:31:56.670Z,2.10
2019-05-06T10:33:33.474Z,1.90
2019-05-06T10:35:09.482Z,1.97
2019-05-06T10:37:12.543Z,2.00
2019-05-06T10:38:52.876Z,1.90
2019-05-06T10:40:33.272Z,1.97
2019-05-06T10:42:13.647Z,2.20
2019-05-06T10:44:03.110Z,1.90
2019-05-06T10:45:38.719Z,2.10
2019-05-06T10:47:14.325Z,2.40
2019-05-06T10:48:50.092Z,2.00
2019-05-06T10:50:26.790Z,2.27
2019-05-06T10:52:16.107Z,2.10
2019-05-06T10:53:51.653Z,2.12
2019-05-06T10:55:27.374Z,2.10
2019-05-06T10:57:07.280Z,2.47
2019-05-06T10:58:44.044Z,2.30
2019-05-06T11:00:23.075Z,2.30
2019-05-06T11:02:05.071Z,2.50
2019-05-06T11:03:37.645Z,2.62
2019-05-06T11:05:13.838Z,2.00
2019-05-06T11:06:52.409Z,2.47
2019-05-06T11:08:27.073Z,2.50
2019-05-06T11:10:02.978Z,2.20
2019-05-06T11:11:39.017Z,2.17
2019-05-06T11:13:14.983Z,2.47
2019-05-06T11:14:55.288Z,2.70
2019-05-06T11:16:27.739Z,3.00
2019-05-06T11:18:04.723Z,2.80
2019-05-06T11:19:42.640Z,2.53
2019-05-06T11:21:17.716Z,2.50
2019-05-06T11:22:53.253Z,2.60
2019-05-06T11:24:28.757Z,2.07
2019-05-06T11:26:04.520Z,2.50
2019-05-06T11:27:44.309Z,2.30
2019-05-06T11:29:19.143Z,2.20
2019-05-06T11:30:57.165Z,2.63
2019-05-06T11:32:37.234Z,2.30
2019-05-06T11:34:22.228Z,2.47
2019-05-06T11:35:59.473Z,2.30
2019-05-06T11:37:49.036Z,2.33
2019-05-06T11:39:17.006Z,2.30
2019-05-06T11:40:53.195Z,2.30
2019-05-06T11:42:32.479Z,2.30
2019-05-06T11:44:09.391Z,2.40
2019-05-06T11:45:45.047Z,2.30
2019-05-06T11:47:23.067Z,2.50
2019-05-06T11:48:58.850Z,2.27
2019-05-06T11:50:34.361Z,2.30
2019-05-06T11:52:09.909Z,2.17
2019-05-06T11:53:45.481Z,2.10
2019-05-06T11:55:29.946Z,2.33
2019-05-06T11:56:58.716Z,2.60
2019-05-06T11:58:44.847Z,2.40
2019-05-06T12:00:23.914Z,2.45
2019-05-06T12:02:02.610Z,2.80
2019-05-06T12:03:39.544Z,2.53
2019-05-06T12:05:15.194Z,2.52
2019-05-06T12:06:52.594Z,2.80
2019-05-06T12:08:27.962Z,2.40
2019-05-06T12:10:04.406Z,2.20
2019-05-06T12:11:40.009Z,2.40
2019-05-06T12:13:15.965Z,2.40
2019-05-06T12:14:52.707Z,2.20
2019-05-06T12:16:28.586Z,2.10
2019-05-06T12:18:04.918Z,2.20
2019-05-06T12:19:40.515Z,2.23
2019-05-06T12:21:19.277Z,2.00
2019-05-06T12:22:53.987Z,1.98
2019-05-06T12:24:29.802Z,2.17
2019-05-06T12:26:05.333Z,2.37
2019-05-06T12:27:46.820Z,2.63
2019-05-06T12:29:22.596Z,2.73
2019-05-06T12:30:58.116Z,1.97
2019-05-06T12:32:35.267Z,2.20
2019-05-06T12:34:12.410Z,2.30
2019-05-06T12:35:48.123Z,2.10
2019-05-06T12:37:25.281Z,2.30
2019-05-06T12:39:18.110Z,2.07
2019-05-06T12:40:53.096Z,2.30
2019-05-06T12:42:32.978Z,2.62
2019-05-06T12:44:07.889Z,2.20
2019-05-06T12:45:45.055Z,2.60
2019-05-06T12:47:28.314Z,2.00
2019-05-06T12:49:04.089Z,2.25
2019-05-06T12:50:39.614Z,2.40
2019-05-06T12:52:15.141Z,2.30
2019-05-06T12:53:52.709Z,2.30
2019-05-06T12:55:28.047Z,2.45
2019-05-06T12:57:03.640Z,2.20
2019-05-06T12:58:39.214Z,2.40
2019-05-06T13:00:15.596Z,2.20
2019-05-06T13:01:53.825Z,2.20
2019-05-06T13:03:31.630Z,2.17
2019-05-06T13:05:07.533Z,2.17
2019-05-06T13:06:46.173Z,2.20
2019-05-06T13:08:22.576Z,2.30
2019-05-06T13:09:57.502Z,2.30
2019-05-06T13:11:33.032Z,1.70
2019-05-06T13:13:08.738Z,1.90
2019-05-06T13:14:44.252Z,2.10
2019-05-06T13:16:19.765Z,2.20
2019-05-06T13:17:57.675Z,2.10
2019-05-06T13:19:33.212Z,2.15
2019-05-06T13:21:12.723Z,2.00
2019-05-06T13:22:49.544Z,2.07
2019-05-06T13:24:26.722Z,2.00
2019-05-06T13:26:02.486Z,2.00
2019-05-06T13:27:42.877Z,2.20
2019-05-06T13:29:19.242Z,2.10
2019-05-06T13:30:55.732Z,2.30
2019-05-06T13:32:32.885Z,2.00
2019-05-06T13:34:10.222Z,2.60
2019-05-06T13:35:45.833Z,2.33
2019-05-06T13:37:22.843Z,2.10
2019-05-06T13:39:13.490Z,2.20
2019-05-06T13:40:51.282Z,2.52
2019-05-06T13:42:16.207Z,2.00
2019-05-06T13:44:05.706Z,2.50
2019-05-06T13:45:43.136Z,2.30
2019-05-06T13:47:36.924Z,2.50
2019-05-06T13:49:29.358Z,2.20
2019-05-06T13:51:06.522Z,2.20
2019-05-06T13:52:44.188Z,2.20
2019-05-06T13:54:22.160Z,2.27
2019-05-06T13:55:56.956Z,2.33
2019-05-06T13:57:32.498Z,2.40
2019-05-06T13:59:08.013Z,2.40
2019-05-06T14:00:43.905Z,2.17
2019-05-06T14:02:21.085Z,2.00
2019-05-06T14:03:56.622Z,2.23
2019-05-06T14:05:32.997Z,2.20
2019-05-06T14:07:08.689Z,2.22
2019-05-06T14:08:44.508Z,2.27
2019-05-06T14:10:22.058Z,2.20
2019-05-06T14:11:57.262Z,2.20
2019-05-06T14:13:32.907Z,2.50
2019-05-06T14:15:08.770Z,2.22
2019-05-06T14:16:44.292Z,2.60
2019-05-06T14:18:19.803Z,2.20
2019-05-06T14:19:55.341Z,2.53
2019-05-06T14:21:32.433Z,2.55
2019-05-06T14:23:10.004Z,2.30
2019-05-06T14:24:47.183Z,2.50
2019-05-06T14:26:34.066Z,2.40
2019-05-06T14:28:12.372Z,2.27
2019-05-06T14:29:49.427Z,2.30
2019-05-06T14:31:26.487Z,2.60
2019-05-06T14:33:03.317Z,2.40
2019-05-06T14:34:39.041Z,2.50
2019-05-06T14:36:14.567Z,2.30
2019-05-06T14:37:50.088Z,2.33
2019-05-06T14:39:47.355Z,2.33
2019-05-06T14:41:07.825Z,2.65
2019-05-06T14:42:42.354Z,2.45
2019-05-06T14:44:18.007Z,2.30
2019-05-06T14:45:53.524Z,2.10
2019-05-06T14:47:32.725Z,2.50
2019-05-06T14:49:07.907Z,2.12
2019-05-06T14:50:48.448Z,2.22
2019-05-06T14:52:22.617Z,2.23
2019-05-06T14:53:58.706Z,2.23
2019-05-06T14:55:35.834Z,2.20
2019-05-06T14:57:14.607Z,2.60
2019-05-06T14:59:06.082Z,2.43
2019-05-06T15:00:42.545Z,2.35
2019-05-06T15:02:25.351Z,2.60
2019-05-06T15:03:57.625Z,2.40
2019-05-06T15:05:36.086Z,2.80
2019-05-06T15:07:17.075Z,2.62
2019-05-06T15:08:57.899Z,2.30
2019-05-06T15:10:53.723Z,2.35
2019-05-06T15:12:33.113Z,2.47
2019-05-06T15:14:08.250Z,2.33
2019-05-06T15:15:43.788Z,2.35
2019-05-06T15:17:19.312Z,2.43
2019-05-06T15:18:54.835Z,2.17
2019-05-06T15:20:30.364Z,2.80
2019-05-06T15:22:06.122Z,2.00
2019-05-06T15:23:42.441Z,2.13
2019-05-06T15:25:18.156Z,2.40
2019-05-06T15:26:54.929Z,2.60
2019-05-06T15:28:30.461Z,2.57
2019-05-06T15:30:12.285Z,2.10
2019-05-06T15:31:48.719Z,2.13
2019-05-06T15:33:25.884Z,2.20
2019-05-06T15:35:16.147Z,2.27
2019-05-06T15:36:57.574Z,2.43
2019-05-06T15:38:33.193Z,2.57
2019-05-06T15:40:09.623Z,2.20
2019-05-06T15:41:45.170Z,2.50
2019-05-06T15:43:22.041Z,2.30
2019-05-06T15:44:57.589Z,2.33
2019-05-06T15:46:34.126Z,2.20
2019-05-06T15:48:09.679Z,2.47
2019-05-06T15:49:45.382Z,2.05
2019-05-06T15:51:22.554Z,2.40
2019-05-06T15:52:58.073Z,2.07
2019-05-06T15:54:33.597Z,2.40
2019-05-06T15:56:09.219Z,2.30
2019-05-06T15:57:44.872Z,2.20
2019-05-06T15:59:22.773Z,2.00
2019-05-06T16:00:57.598Z,2.03
2019-05-06T16:02:34.299Z,2.13
2019-05-06T16:04:12.221Z,2.00
2019-05-06T16:05:47.812Z,2.17
2019-05-06T16:07:26.123Z,2.20
2019-05-06T16:09:03.636Z,2.10
2019-05-06T16:10:52.013Z,1.83
2019-05-06T16:12:17.868Z,2.13
2019-05-06T16:13:53.529Z,2.30
2019-05-06T16:15:29.092Z,2.03
2019-05-06T16:17:04.817Z,2.23
2019-05-06T16:18:42.291Z,2.40
2019-05-06T16:20:18.047Z,2.30
2019-05-06T16:21:53.632Z,2.40
2019-05-06T16:23:33.861Z,1.90
2019-05-06T16:25:15.033Z,1.70
2019-05-06T16:26:52.753Z,1.90
2019-05-06T16:28:28.078Z,2.10
2019-05-06T16:30:04.942Z,1.93
2019-05-06T16:31:42.247Z,1.90
2019-05-06T16:33:19.086Z,2.12
2019-05-06T16:34:54.704Z,2.10
2019-05-06T16:36:32.429Z,2.00
2019-05-06T16:38:07.556Z,2.10
2019-05-06T16:39:43.081Z,2.08
2019-05-06T16:41:19.577Z,2.10
2019-05-06T16:42:55.138Z,2.03
2019-05-06T16:44:31.167Z,2.07
2019-05-06T16:46:06.770Z,2.20
2019-05-06T16:47:44.699Z,2.30
2019-05-06T16:49:19.749Z,2.10
2019-05-06T16:50:55.274Z,2.13
2019-05-06T16:52:33.196Z,2.10
2019-05-06T16:54:08.053Z,2.03
2019-05-06T16:56:02.263Z,2.30
2019-05-06T16:57:37.903Z,1.87
2019-05-06T16:59:13.404Z,2.00
2019-05-06T17:00:48.932Z,1.80
2019-05-06T17:02:26.699Z,2.10
2019-05-06T17:04:14.645Z,2.10
2019-05-06T17:06:07.724Z,2.27
2019-05-06T17:07:45.131Z,2.20
2019-05-06T17:09:24.438Z,2.00
2019-05-06T17:10:57.714Z,1.97
2019-05-06T17:12:35.391Z,1.90
2019-05-06T17:14:12.265Z,1.90
2019-05-06T17:15:49.918Z,1.90
2019-05-06T17:17:38.900Z,1.80
2019-05-06T17:19:03.402Z,2.10
2019-05-06T17:20:39.001Z,2.10
2019-05-06T17:22:14.521Z,1.98
2019-05-06T17:23:52.083Z,2.02
2019-05-06T17:25:27.336Z,2.00
2019-05-06T17:27:02.911Z,1.73
2019-05-06T17:28:43.363Z,1.80
2019-05-06T17:30:33.269Z,2.02
2019-05-06T17:32:13.386Z,2.10
2019-05-06T17:33:56.202Z,1.93
2019-05-06T17:35:32.793Z,1.80
2019-05-06T17:37:12.361Z,2.03
2019-05-06T17:38:52.559Z,1.93
2019-05-06T17:40:28.103Z,1.97
2019-05-06T17:42:03.974Z,2.27
2019-05-06T17:43:41.068Z,2.00
2019-05-06T17:45:36.684Z,1.60
2019-05-06T17:47:22.934Z,1.90
2019-05-06T17:49:02.240Z,1.90
2019-05-06T17:50:37.354Z,2.00
2019-05-06T17:52:14.522Z,1.90
2019-05-06T17:53:54.161Z,2.00
2019-05-06T17:55:29.683Z,2.07
2019-05-06T17:57:06.428Z,1.80
2019-05-06T17:58:42.402Z,1.90
2019-05-06T18:00:19.037Z,2.00
2019-05-06T18:01:56.267Z,1.83
2019-05-06T18:03:32.592Z,2.00
2019-05-06T18:05:08.433Z,1.90
2019-05-06T18:06:44.013Z,2.00
2019-05-06T18:08:19.777Z,1.92
2019-05-06T18:09:55.318Z,1.80
2019-05-06T18:11:33.259Z,1.90
2019-05-06T18:13:08.024Z,1.80
2019-05-06T18:14:43.758Z,2.00
2019-05-06T18:16:19.496Z,1.80
2019-05-06T18:17:55.411Z,2.00
2019-05-06T18:19:33.215Z,1.67
2019-05-06T18:21:08.205Z,1.80
2019-05-06T18:22:43.748Z,1.80
2019-05-06T18:24:19.276Z,2.00
2019-05-06T18:25:54.798Z,1.97
2019-05-06T18:27:32.562Z,1.80
2019-05-06T18:29:07.557Z,2.07
2019-05-06T18:30:44.703Z,1.97
2019-05-06T18:32:20.483Z,1.87
2019-05-06T18:33:56.063Z,1.80
2019-05-06T18:35:32.126Z,1.90
2019-05-06T18:37:07.273Z,2.13
2019-05-06T18:38:42.995Z,1.97
2019-05-06T18:40:18.522Z,2.80
2019-05-06T18:41:54.059Z,2.80
2019-05-06T18:43:29.578Z,2.80
2019-05-06T18:45:06.146Z,2.83
2019-05-06T18:46:42.142Z,3.27
2019-05-06T18:48:17.767Z,3.63
2019-05-06T18:49:53.306Z,3.05
2019-05-06T18:51:28.845Z,3.17
2019-05-06T18:53:04.478Z,3.00
2019-05-06T18:54:40.016Z,2.97
2019-05-06T18:56:15.530Z,2.60
2019-05-06T18:57:52.788Z,2.35
2019-05-06T18:59:28.437Z,2.60
2019-05-06T19:01:04.348Z,2.70
2019-05-06T19:02:42.166Z,2.40
2019-05-06T19:04:27.165Z,2.58
2019-05-06T19:06:03.211Z,2.27
2019-05-06T19:07:38.799Z,3.07
2019-05-06T19:09:24.681Z,2.43
2019-05-06T19:11:02.331Z,2.90
2019-05-06T19:12:41.263Z,3.85
2019-05-06T19:14:15.214Z,3.92
2019-05-06T19:15:52.642Z,4.62
2019-05-06T19:17:27.969Z,4.60
2019-05-06T19:19:05.824Z,4.20
2019-05-06T19:20:43.295Z,4.90
2019-05-06T19:22:18.796Z,4.53
2019-05-06T19:23:54.931Z,4.40
2019-05-06T19:25:33.955Z,4.03
2019-05-06T19:27:08.127Z,4.22
2019-05-06T19:28:43.657Z,3.67
2019-05-06T19:30:22.322Z,3.72
2019-05-06T19:31:57.647Z,3.63
2019-05-06T19:33:34.862Z,3.30
2019-05-06T19:35:13.042Z,3.27
2019-05-06T19:36:48.021Z,3.37
2019-05-06T19:38:24.452Z,3.58
2019-05-06T19:40:00.064Z,3.33
2019-05-06T19:41:35.603Z,3.37
2019-05-06T19:43:12.353Z,3.50
2019-05-06T19:44:47.945Z,3.52
2019-05-06T19:46:23.459Z,3.15
2019-05-06T19:47:58.992Z,3.27
2019-05-06T19:49:36.583Z,3.07
2019-05-06T19:51:11.788Z,3.53
2019-05-06T19:52:47.299Z,3.37
2019-05-06T19:54:22.814Z,3.60
2019-05-06T19:55:58.341Z,3.20
2019-05-06T19:57:33.851Z,3.37
2019-05-06T19:59:10.357Z,2.93
2019-05-06T20:00:47.181Z,3.08
2019-05-06T20:02:25.680Z,2.60
2019-05-06T20:04:02.303Z,2.43
2019-05-06T20:05:41.542Z,2.83
2019-05-06T20:07:26.916Z,3.00
2019-05-06T20:09:19.235Z,2.80
2019-05-06T20:11:04.825Z,2.42
2019-05-06T20:12:58.423Z,2.90
2019-05-06T20:14:22.156Z,2.75
2019-05-06T20:15:57.689Z,2.90
2019-05-06T20:17:33.204Z,2.90
2019-05-06T20:19:09.022Z,3.30
2019-05-06T20:20:44.547Z,2.80
2019-05-06T20:22:20.083Z,3.52
2019-05-06T20:23:55.719Z,3.05
2019-05-06T20:25:31.256Z,3.00
2019-05-06T20:27:06.777Z,3.27
2019-05-06T20:28:42.940Z,3.43
2019-05-06T20:30:19.044Z,3.27
2019-05-06T20:31:54.559Z,3.25
2019-05-06T20:33:32.515Z,3.43
2019-05-06T20:35:09.185Z,3.20
2019-05-06T20:36:44.956Z,3.10
2019-05-06T20:38:23.270Z,3.00
2019-05-06T20:39:59.189Z,3.03
2019-05-06T20:41:34.993Z,3.23
2019-05-06T20:43:17.472Z,3.20
2019-05-06T20:44:48.037Z,3.52
2019-05-06T20:46:24.062Z,3.40
2019-05-06T20:48:03.248Z,3.50
2019-05-06T20:49:39.054Z,3.50
2019-05-06T20:51:14.573Z,3.23
2019-05-06T20:52:52.112Z,3.60
2019-05-06T20:54:27.988Z,3.40
2019-05-06T20:56:03.556Z,3.50
2019-05-06T20:57:39.194Z,3.87
2019-05-06T20:59:14.720Z,3.10
2019-05-06T21:00:52.164Z,3.50
2019-05-06T21:02:27.909Z,3.50
2019-05-06T21:04:03.430Z,3.67
2019-05-06T21:05:39.274Z,3.35
2019-05-06T21:07:16.390Z,3.15
2019-05-06T21:08:53.007Z,3.47
2019-05-06T21:10:32.879Z,3.83
2019-05-06T21:12:09.739Z,3.72
2019-05-06T21:13:46.472Z,3.87
2019-05-06T21:15:22.919Z,4.07
2019-05-06T21:17:02.562Z,3.57
2019-05-06T21:18:41.989Z,3.60
2019-05-06T21:20:22.332Z,3.80
2019-05-06T21:24:47.115Z,3.73
2019-05-06T21:26:26.820Z,3.40
2019-05-06T21:28:03.926Z,3.33
2019-05-06T21:29:44.151Z,3.60
2019-05-06T21:31:19.715Z,3.60
2019-05-06T21:32:55.232Z,3.60
2019-05-06T21:34:32.781Z,3.93
2019-05-06T21:36:08.427Z,4.23
2019-05-06T21:37:43.948Z,3.97
2019-05-06T21:39:19.478Z,3.90
2019-05-06T21:40:55.266Z,4.17
2019-05-06T21:42:32.553Z,3.40
2019-05-06T21:44:09.163Z,3.87